createdAt,value
2022-09-07T00:00:59.056Z,12.9
2022-09-07T00:02:07.411Z,12.9
2022-09-07T00:03:15.857Z,12.9
2022-09-07T00:04:24.340Z,12.9
2022-09-07T00:05:32.688Z,12.9
2022-09-07T00:06:41.060Z,12.9
2022-09-07T00:07:49.625Z,12.6
2022-09-07T00:08:57.982Z,12.6
2022-09-07T00:10:06.329Z,12.6
2022-09-07T00:11:14.895Z,12.9
2022-09-07T00:12:23.252Z,12.9
2022-09-07T00:13:31.600Z,12.9
2022-09-07T00:14:40.175Z,12.8
2022-09-07T00:15:48.542Z,12.8
2022-09-07T00:16:56.863Z,12.8
2022-09-07T00:18:05.400Z,12.8
2022-09-07T00:19:13.758Z,12.8
2022-09-07T00:20:22.113Z,12.8
2022-09-07T00:21:30.683Z,12.6
2022-09-07T00:22:39.040Z,12.6
2022-09-07T00:23:47.380Z,12.6
2022-09-07T00:24:55.942Z,12.7
2022-09-07T00:26:04.299Z,12.7
2022-09-07T00:27:12.635Z,12.7
2022-09-07T00:28:21.182Z,14
2022-09-07T00:29:29.529Z,14
2022-09-07T00:30:37.895Z,14
2022-09-07T00:31:46.495Z,13.9
2022-09-07T00:32:54.810Z,13.9
2022-09-07T00:34:03.146Z,13.9
2022-09-07T00:35:11.711Z,14.1
2022-09-07T00:36:20.106Z,14.1
2022-09-07T00:37:28.428Z,14.1
2022-09-07T00:38:36.961Z,13.8
2022-09-07T00:39:45.361Z,13.8
2022-09-07T00:40:53.663Z,13.8
2022-09-07T00:42:02.202Z,13.5
2022-09-07T00:43:10.553Z,13.5
2022-09-07T00:44:18.888Z,13.5
2022-09-07T00:45:27.456Z,13.5
2022-09-07T00:46:35.826Z,13.5
2022-09-07T00:47:44.168Z,13.5
2022-09-07T00:48:52.706Z,13.8
2022-09-07T00:50:01.066Z,13.8
2022-09-07T00:51:09.415Z,13.8
2022-09-07T00:52:17.973Z,13.1
2022-09-07T00:53:26.314Z,13.1
2022-09-07T00:54:34.699Z,13.1
2022-09-07T00:55:43.249Z,13.2
2022-09-07T00:56:51.598Z,13.2
2022-09-07T00:57:59.948Z,13.2
2022-09-07T00:59:08.509Z,12.7
2022-09-07T01:00:16.875Z,12.7
2022-09-07T01:01:25.324Z,12.7
2022-09-07T01:02:33.912Z,13.3
2022-09-07T01:03:42.130Z,13.3
2022-09-07T01:04:50.480Z,13.3
2022-09-07T01:05:59.035Z,12.2
2022-09-07T01:07:07.396Z,12.2
2022-09-07T01:08:15.753Z,12.2
2022-09-07T01:09:24.327Z,13.2
2022-09-07T01:10:32.688Z,13.2
2022-09-07T01:11:41.041Z,13.2
2022-09-07T01:12:49.614Z,13.1
2022-09-07T01:13:57.962Z,13.1
2022-09-07T01:15:06.329Z,13.1
2022-09-07T01:16:14.956Z,13
2022-09-07T01:17:23.266Z,13
2022-09-07T01:18:31.709Z,13
2022-09-07T01:19:40.198Z,13.6
2022-09-07T01:20:48.566Z,13.6
2022-09-07T01:21:56.897Z,13.6
2022-09-07T01:23:05.458Z,13.5
2022-09-07T01:24:13.799Z,13.5
2022-09-07T01:25:22.150Z,13.5
2022-09-07T01:26:30.706Z,14
2022-09-07T01:27:39.044Z,14
2022-09-07T01:28:47.411Z,14
2022-09-07T01:29:55.975Z,13.2
2022-09-07T01:31:04.368Z,13.2
2022-09-07T01:32:12.688Z,13.2
2022-09-07T01:33:21.254Z,13.6
2022-09-07T01:34:29.616Z,13.6
2022-09-07T01:35:37.970Z,13.6
2022-09-07T01:36:46.544Z,13.1
2022-09-07T01:37:56.974Z,13.1
2022-09-07T01:39:03.243Z,13.1
2022-09-07T01:40:11.853Z,13.1
2022-09-07T01:41:20.165Z,13.1
2022-09-07T01:42:28.513Z,13.1
2022-09-07T01:43:37.069Z,13.1
2022-09-07T01:44:45.422Z,13.1
2022-09-07T01:45:53.815Z,13.1
2022-09-07T01:47:02.305Z,13.6
2022-09-07T01:48:10.658Z,13.6
2022-09-07T01:49:19.024Z,13.6
2022-09-07T01:50:27.579Z,13.9
2022-09-07T01:51:35.919Z,13.9
2022-09-07T01:52:44.269Z,13.9
2022-09-07T01:53:52.832Z,13.3
2022-09-07T01:55:01.193Z,13.3
2022-09-07T01:56:09.532Z,13.3
2022-09-07T01:57:18.102Z,13.4
2022-09-07T01:58:26.533Z,13.4
2022-09-07T01:59:34.794Z,13.4
2022-09-07T02:00:43.360Z,12.8
2022-09-07T02:01:51.766Z,12.8
2022-09-07T02:03:00.090Z,12.8
2022-09-07T02:04:08.597Z,13.3
2022-09-07T02:05:16.943Z,13.3
2022-09-07T02:06:25.299Z,13.3
2022-09-07T02:07:33.860Z,13.4
2022-09-07T02:08:42.215Z,13.4
2022-09-07T02:09:50.544Z,13.4
2022-09-07T02:10:59.080Z,13.4
2022-09-07T02:12:07.438Z,13.4
2022-09-07T02:13:15.796Z,13.4
2022-09-07T02:14:24.350Z,13.6
2022-09-07T02:15:32.730Z,13.6
2022-09-07T02:16:41.056Z,13.6
2022-09-07T02:17:49.632Z,13.2
2022-09-07T02:18:57.984Z,13.2
2022-09-07T02:20:06.311Z,13.2
2022-09-07T02:21:14.873Z,13.4
2022-09-07T02:22:23.213Z,13.4
2022-09-07T02:23:31.564Z,13.4
2022-09-07T02:24:40.129Z,12.7
2022-09-07T02:25:48.485Z,12.7
2022-09-07T02:26:56.839Z,12.7
2022-09-07T02:28:05.410Z,12.2
2022-09-07T02:29:13.773Z,12.2
2022-09-07T02:30:22.108Z,12.2
2022-09-07T02:31:30.688Z,12.9
2022-09-07T02:32:39.026Z,12.9
2022-09-07T02:33:47.391Z,12.9
2022-09-07T02:34:55.926Z,12.9
2022-09-07T02:36:04.274Z,12.9
2022-09-07T02:37:12.626Z,12.9
2022-09-07T02:38:21.189Z,12.5
2022-09-07T02:39:29.559Z,12.5
2022-09-07T02:40:37.870Z,12.5
2022-09-07T02:41:46.452Z,12.5
2022-09-07T02:42:54.821Z,12.5
2022-09-07T02:44:03.189Z,12.5
2022-09-07T02:45:11.744Z,12.5
2022-09-07T02:46:20.185Z,12.5
2022-09-07T02:47:28.472Z,12.5
2022-09-07T02:48:37.035Z,11.9
2022-09-07T02:49:45.392Z,11.9
2022-09-07T02:50:53.723Z,11.9
2022-09-07T02:52:02.277Z,12.2
2022-09-07T02:53:10.627Z,12.2
2022-09-07T02:54:18.981Z,12.2
2022-09-07T02:55:27.529Z,11
2022-09-07T02:56:35.899Z,11
2022-09-07T02:57:44.249Z,11
2022-09-07T02:58:52.833Z,10.8
2022-09-07T03:00:01.185Z,10.8
2022-09-07T03:01:09.595Z,10.8
2022-09-07T03:02:18.125Z,10.9
2022-09-07T03:03:26.448Z,10.9
2022-09-07T03:04:34.802Z,10.9
2022-09-07T03:05:43.364Z,11.6
2022-09-07T03:06:51.718Z,11.6
2022-09-07T03:08:00.085Z,11.6
2022-09-07T03:09:08.650Z,11.9
2022-09-07T03:10:17.009Z,11.9
2022-09-07T03:11:25.366Z,11.9
2022-09-07T03:12:33.943Z,12.5
2022-09-07T03:13:42.283Z,12.5
2022-09-07T03:14:50.633Z,12.5
2022-09-07T03:15:59.262Z,12.1
2022-09-07T03:17:07.556Z,12.1
2022-09-07T03:18:15.929Z,12.1
2022-09-07T03:19:24.475Z,12.6
2022-09-07T03:20:32.832Z,12.6
2022-09-07T03:21:41.196Z,12.6
2022-09-07T03:22:49.763Z,13.4
2022-09-07T03:23:58.110Z,13.4
2022-09-07T03:25:06.455Z,13.4
2022-09-07T03:26:15.026Z,12.9
2022-09-07T03:27:23.373Z,12.9
2022-09-07T03:28:31.900Z,12.9
2022-09-07T03:29:42.060Z,13.1
2022-09-07T03:30:48.697Z,13.1
2022-09-07T03:31:56.979Z,13.1
2022-09-07T03:33:05.552Z,12.2
2022-09-07T03:34:13.881Z,12.2
2022-09-07T03:35:22.235Z,12.2
2022-09-07T03:36:30.803Z,13.1
2022-09-07T03:37:39.170Z,13.1
2022-09-07T03:38:47.552Z,13.1
2022-09-07T03:39:56.178Z,12.3
2022-09-07T03:41:04.476Z,12.3
2022-09-07T03:42:12.842Z,12.3
2022-09-07T03:43:21.389Z,13
2022-09-07T03:44:29.748Z,13
2022-09-07T03:45:38.187Z,13
2022-09-07T03:46:46.695Z,12.4
2022-09-07T03:47:55.059Z,12.4
2022-09-07T03:49:03.396Z,12.4
2022-09-07T03:50:11.941Z,12.3
2022-09-07T03:51:20.304Z,12.3
2022-09-07T03:52:28.651Z,12.3
2022-09-07T03:53:37.212Z,12.7
2022-09-07T03:54:45.566Z,12.7
2022-09-07T03:55:53.917Z,12.7
2022-09-07T03:57:02.481Z,12
2022-09-07T03:58:10.827Z,12
2022-09-07T03:59:19.190Z,12
2022-09-07T04:00:27.744Z,12
2022-09-07T04:01:36.128Z,12
2022-09-07T04:02:44.525Z,12
2022-09-07T04:03:53.013Z,11.8
2022-09-07T04:05:01.368Z,11.8
2022-09-07T04:06:09.716Z,11.8
2022-09-07T04:07:18.295Z,10.9
2022-09-07T04:08:26.653Z,10.9
2022-09-07T04:09:35.008Z,10.9
2022-09-07T04:10:43.572Z,12.3
2022-09-07T04:11:51.920Z,12.3
2022-09-07T04:13:00.268Z,12.3
2022-09-07T04:14:08.826Z,11.6
2022-09-07T04:15:17.164Z,11.6
2022-09-07T04:16:25.552Z,11.6
2022-09-07T04:17:34.099Z,12.1
2022-09-07T04:18:42.417Z,12.1
2022-09-07T04:19:50.767Z,12.1
2022-09-07T04:20:59.341Z,12.5
2022-09-07T04:22:07.713Z,12.5
2022-09-07T04:23:16.065Z,12.5
2022-09-07T04:24:24.639Z,13.5
2022-09-07T04:25:32.992Z,13.5
2022-09-07T04:26:41.353Z,13.5
2022-09-07T04:27:49.922Z,13.8
2022-09-07T04:28:58.275Z,13.8
2022-09-07T04:30:06.594Z,13.8
2022-09-07T04:31:15.325Z,13.4
2022-09-07T04:32:23.538Z,13.4
2022-09-07T04:33:31.900Z,13.4
2022-09-07T04:34:40.463Z,14.7
2022-09-07T04:35:48.843Z,14.7
2022-09-07T04:36:57.172Z,14.7
2022-09-07T04:38:05.738Z,14.3
2022-09-07T04:39:14.080Z,14.3
2022-09-07T04:40:22.422Z,14.3
2022-09-07T04:41:30.983Z,14.4
2022-09-07T04:42:39.339Z,14.4
2022-09-07T04:43:47.689Z,14.4
2022-09-07T04:44:56.249Z,14.6
2022-09-07T04:46:04.721Z,14.6
2022-09-07T04:47:12.941Z,14.6
2022-09-07T04:48:21.485Z,14.5
2022-09-07T04:49:29.831Z,14.5
2022-09-07T04:50:38.173Z,14.5
2022-09-07T04:51:46.717Z,14
2022-09-07T04:52:55.046Z,14
2022-09-07T04:54:03.393Z,14
2022-09-07T04:55:11.941Z,14.2
2022-09-07T04:56:20.299Z,14.2
2022-09-07T04:57:28.625Z,14.2
2022-09-07T04:58:37.185Z,13.6
2022-09-07T04:59:45.540Z,13.6
2022-09-07T05:00:53.906Z,13.6
2022-09-07T05:02:02.474Z,14.6
2022-09-07T05:03:10.804Z,14.6
2022-09-07T05:04:19.166Z,14.6
2022-09-07T05:05:27.726Z,14.2
2022-09-07T05:06:36.092Z,14.2
2022-09-07T05:07:44.447Z,14.2
2022-09-07T05:08:53.078Z,14.1
2022-09-07T05:10:01.433Z,14.1
2022-09-07T05:11:09.801Z,14.1
2022-09-07T05:12:18.347Z,13.9
2022-09-07T05:13:26.702Z,13.9
2022-09-07T05:14:35.048Z,13.9
2022-09-07T05:15:43.604Z,13.1
2022-09-07T05:16:52.029Z,13.1
2022-09-07T05:18:00.274Z,13.1
2022-09-07T05:19:08.835Z,12.9
2022-09-07T05:20:20.104Z,12.9
2022-09-07T05:21:25.531Z,12.9
2022-09-07T05:22:34.077Z,12.8
2022-09-07T05:23:42.433Z,12.8
2022-09-07T05:24:50.762Z,12.8
2022-09-07T05:25:59.330Z,11.1
2022-09-07T05:27:07.674Z,11.1
2022-09-07T05:28:19.361Z,11.1
2022-09-07T05:31:41.263Z,11.5
2022-09-07T05:32:49.803Z,11
2022-09-07T05:35:06.491Z,11
2022-09-07T05:36:15.071Z,10.8
2022-09-07T05:37:23.421Z,10.8
2022-09-07T05:38:31.820Z,10.8
2022-09-07T05:39:40.351Z,10.9
2022-09-07T05:40:48.658Z,10.9
2022-09-07T05:41:57.035Z,10.9
2022-09-07T05:43:05.570Z,10.7
2022-09-07T05:45:22.237Z,10.7
2022-09-07T05:46:30.802Z,11
2022-09-07T05:47:39.159Z,11
2022-09-07T05:48:47.514Z,11
2022-09-07T05:49:57.112Z,12.3
2022-09-07T05:51:04.399Z,12.3
2022-09-07T05:52:12.731Z,12.3
2022-09-07T05:53:21.311Z,11.9
2022-09-07T05:54:29.648Z,11.9
2022-09-07T05:55:38.011Z,11.9
2022-09-07T05:56:46.558Z,11.7
2022-09-07T05:57:54.907Z,11.7
2022-09-07T05:59:03.259Z,11.7
2022-09-07T06:00:11.814Z,11.7
2022-09-07T06:01:20.167Z,11.7
2022-09-07T06:02:28.606Z,11.7
2022-09-07T06:03:37.054Z,12.8
2022-09-07T06:04:45.410Z,12.8
2022-09-07T06:05:53.765Z,12.8
2022-09-07T06:07:20.936Z,13
2022-09-07T06:08:10.713Z,13
2022-09-07T06:09:19.072Z,13
2022-09-07T06:11:35.995Z,13.3
2022-09-07T06:12:45.607Z,13.3
2022-09-07T06:13:52.935Z,14
2022-09-07T06:15:01.289Z,14
2022-09-07T06:16:09.689Z,14
2022-09-07T06:17:18.206Z,14
2022-09-07T06:18:26.548Z,14
2022-09-07T06:19:34.904Z,14
2022-09-07T06:20:43.472Z,16.1
2022-09-07T06:21:51.829Z,16.1
2022-09-07T06:23:00.175Z,16.1
2022-09-07T06:24:08.738Z,14.2
2022-09-07T06:25:17.077Z,14.2
2022-09-07T06:26:25.413Z,14.2
2022-09-07T06:27:33.985Z,14.8
2022-09-07T06:28:42.357Z,14.8
2022-09-07T06:29:50.726Z,14.8
2022-09-07T06:30:59.289Z,15.4
2022-09-07T06:33:18.133Z,15.4
2022-09-07T06:34:24.516Z,15.6
2022-09-07T06:35:32.884Z,15.6
2022-09-07T06:36:41.238Z,15.6
2022-09-07T06:37:49.805Z,16.4
2022-09-07T06:38:58.158Z,16.4
2022-09-07T06:40:06.587Z,16.4
2022-09-07T06:42:23.439Z,15.2
2022-09-07T06:43:31.888Z,15.2
2022-09-07T06:44:40.359Z,15.2
2022-09-07T06:45:48.915Z,15.2
2022-09-07T06:47:04.375Z,15.2
2022-09-07T06:48:05.621Z,14.5
2022-09-07T06:49:13.970Z,14.5
2022-09-07T06:50:22.335Z,14.5
2022-09-07T06:51:30.902Z,14.4
2022-09-07T06:53:48.019Z,14.4
2022-09-07T06:56:04.529Z,14.9
2022-09-07T06:57:12.869Z,14.9
2022-09-07T06:58:21.441Z,14.2
2022-09-07T06:59:29.829Z,14.2
2022-09-07T07:00:38.245Z,14.2
2022-09-07T07:01:46.737Z,14.6
2022-09-07T07:02:55.133Z,14.6
2022-09-07T07:04:03.425Z,14.6
2022-09-07T07:05:12.017Z,13.5
2022-09-07T07:06:20.355Z,13.5
2022-09-07T07:07:28.694Z,13.5
2022-09-07T07:08:37.255Z,11.8
2022-09-07T07:09:45.619Z,11.8
2022-09-07T07:10:53.964Z,11.8
2022-09-07T07:12:02.540Z,10.2
2022-09-07T07:13:10.884Z,10.2
2022-09-07T07:14:17.185Z,10.2
2022-09-07T07:15:25.741Z,10.1
2022-09-07T07:16:34.155Z,10.1
2022-09-07T07:17:43.047Z,10.1
2022-09-07T07:18:51.016Z,11.7
2022-09-07T07:19:59.383Z,11.7
2022-09-07T07:21:07.753Z,11.7
2022-09-07T07:22:42.839Z,11.4
2022-09-07T07:23:24.762Z,11.4
2022-09-07T07:24:33.067Z,11.4
2022-09-07T07:25:41.620Z,10.4
2022-09-07T07:26:49.991Z,10.4
2022-09-07T07:29:06.900Z,9
2022-09-07T07:30:15.259Z,9
2022-09-07T07:31:23.628Z,9
2022-09-07T07:32:32.174Z,8.1
2022-09-07T07:33:40.680Z,8.1
2022-09-07T07:34:48.890Z,8.1
2022-09-07T07:35:57.448Z,7.1
2022-09-07T07:37:05.797Z,7.1
2022-09-07T07:40:32.533Z,7.4
2022-09-07T07:41:55.520Z,7.4
2022-09-07T07:42:47.987Z,6.8
2022-09-07T07:43:56.335Z,6.8
2022-09-07T07:46:13.303Z,7.5
2022-09-07T07:47:21.600Z,7.5
2022-09-07T07:48:29.967Z,7.5
2022-09-07T07:49:38.606Z,6.6
2022-09-07T07:50:46.890Z,6.6
2022-09-07T07:54:12.152Z,7
2022-09-07T07:56:29.059Z,7.1
2022-09-07T07:57:37.412Z,7.1
2022-09-07T07:58:45.788Z,7.1
2022-09-07T07:59:54.330Z,7.1
2022-09-07T08:01:02.752Z,7.1
2022-09-07T08:02:11.086Z,7.1
2022-09-07T08:03:19.603Z,7.4
2022-09-07T08:04:27.958Z,7.4
2022-09-07T08:05:36.328Z,7.4
2022-09-07T08:06:44.868Z,6.7
2022-09-07T08:07:53.240Z,6.7
2022-09-07T08:09:01.558Z,6.7
2022-09-07T08:10:10.146Z,6.3
2022-09-07T08:11:18.489Z,6.3
2022-09-07T08:12:29.727Z,6.3
2022-09-07T08:13:35.409Z,7
2022-09-07T08:14:43.738Z,7
2022-09-07T08:15:52.201Z,7
2022-09-07T08:17:00.671Z,7.1
2022-09-07T08:18:09.039Z,7.1
2022-09-07T08:19:17.390Z,7.1
2022-09-07T08:20:25.945Z,6
2022-09-07T08:21:34.400Z,6
2022-09-07T08:22:42.679Z,6
2022-09-07T08:23:51.253Z,6.8
2022-09-07T08:24:59.618Z,6.8
2022-09-07T08:26:07.969Z,6.8
2022-09-07T08:27:16.519Z,6.7
2022-09-07T08:28:24.857Z,6.7
2022-09-07T08:29:35.072Z,6.7
2022-09-07T08:30:41.745Z,7.2
2022-09-07T08:31:50.224Z,7.2
2022-09-07T08:32:58.427Z,7.2
2022-09-07T08:34:07.010Z,6.6
2022-09-07T08:35:15.450Z,6.6
2022-09-07T08:36:23.803Z,6.6
2022-09-07T08:37:32.388Z,6.6
2022-09-07T08:38:40.721Z,6.6
2022-09-07T08:39:49.121Z,6.6
2022-09-07T08:40:57.653Z,7.2
2022-09-07T08:42:05.973Z,7.2
2022-09-07T08:43:14.307Z,7.2
2022-09-07T08:44:22.886Z,6.7
2022-09-07T08:45:31.241Z,6.7
2022-09-07T08:46:39.689Z,6.7
2022-09-07T08:47:48.178Z,6.1
2022-09-07T08:48:56.543Z,6.1
2022-09-07T08:50:04.898Z,6.1
2022-09-07T08:51:13.457Z,5.9
2022-09-07T08:52:21.812Z,5.9
2022-09-07T08:53:30.317Z,5.9
2022-09-07T08:54:38.732Z,5.6
2022-09-07T08:55:47.088Z,5.6
2022-09-07T08:57:25.280Z,5.6
2022-09-07T08:58:03.979Z,5.3
2022-09-07T08:59:12.341Z,5.3
2022-09-07T09:00:20.675Z,5.3
2022-09-07T09:01:30.875Z,5.4
2022-09-07T09:02:43.366Z,5.4
2022-09-07T09:04:15.067Z,5.4
2022-09-07T09:06:02.893Z,5.4
2022-09-07T09:07:11.227Z,5.4
2022-09-07T09:08:19.727Z,5.7
2022-09-07T09:09:28.122Z,5.7
2022-09-07T09:10:36.454Z,5.7
2022-09-07T09:11:44.994Z,5.4
2022-09-07T09:12:53.340Z,5.4
2022-09-07T09:14:01.696Z,5.4
2022-09-07T09:15:10.244Z,5.3
2022-09-07T09:16:18.701Z,5.3
2022-09-07T09:17:26.942Z,5.3
2022-09-07T09:18:35.497Z,5.2
2022-09-07T09:19:43.846Z,5.2
2022-09-07T09:20:52.210Z,5.2
2022-09-07T09:22:00.780Z,4.9
2022-09-07T09:23:09.126Z,4.9
2022-09-07T09:24:17.499Z,4.9
2022-09-07T09:25:26.068Z,4.8
2022-09-07T09:26:34.400Z,4.8
2022-09-07T09:27:42.747Z,4.8
2022-09-07T09:28:51.334Z,5.5
2022-09-07T09:29:59.670Z,5.5
2022-09-07T09:31:08.037Z,5.5
2022-09-07T09:32:16.557Z,5.2
2022-09-07T09:33:24.908Z,5.2
2022-09-07T09:34:35.126Z,5.2
2022-09-07T09:35:41.815Z,5.6
2022-09-07T09:36:50.177Z,5.6
2022-09-07T09:37:58.520Z,5.6
2022-09-07T09:39:07.104Z,5.2
2022-09-07T09:40:15.499Z,5.2
2022-09-07T09:41:23.901Z,5.2
2022-09-07T09:42:32.390Z,5.2
2022-09-07T09:43:40.748Z,5.2
2022-09-07T09:44:49.118Z,5.2
2022-09-07T09:46:13.270Z,5.4
2022-09-07T09:48:14.420Z,5.4
2022-09-07T09:49:22.985Z,5.4
2022-09-07T09:52:51.763Z,4.9
2022-09-07T09:53:56.546Z,4.9
2022-09-07T09:55:32.914Z,4.9
2022-09-07T09:56:13.431Z,4.1
2022-09-07T09:57:21.767Z,4.1
2022-09-07T10:04:14.767Z,3.7
2022-09-07T10:05:20.408Z,3.7
2022-09-07T10:06:28.969Z,3.5
2022-09-07T10:07:37.337Z,3.5
2022-09-07T10:08:45.659Z,3.5
2022-09-07T10:09:54.184Z,3.3
2022-09-07T10:11:02.542Z,3.3
2022-09-07T10:12:10.869Z,3.3
2022-09-07T10:13:19.499Z,3.4
2022-09-07T10:14:27.792Z,3.4
2022-09-07T10:15:40.359Z,3.4
2022-09-07T10:16:44.676Z,5.3
2022-09-07T10:17:53.028Z,5.3
2022-09-07T10:19:01.349Z,5.3
2022-09-07T10:20:09.894Z,4.1
2022-09-07T10:21:18.216Z,4.1
2022-09-07T10:22:26.554Z,4.1
2022-09-07T10:23:35.110Z,3.8
2022-09-07T10:24:43.443Z,3.8
2022-09-07T10:25:51.784Z,3.8
2022-09-07T10:27:00.311Z,3.4
2022-09-07T10:28:08.671Z,3.4
2022-09-07T10:29:17.372Z,3.4
2022-09-07T10:30:25.575Z,3.7
2022-09-07T10:31:33.936Z,3.7
2022-09-07T10:32:42.251Z,3.7
2022-09-07T10:34:59.157Z,3.8
2022-09-07T10:36:07.477Z,3.8
2022-09-07T10:37:16.026Z,3.7
2022-09-07T10:38:24.942Z,3.7
2022-09-07T10:39:32.764Z,3.7
2022-09-07T10:40:41.317Z,3
2022-09-07T10:41:49.649Z,3
2022-09-07T10:44:06.516Z,3.2
2022-09-07T10:45:14.877Z,3.2
2022-09-07T10:47:31.730Z,3.4
2022-09-07T10:48:40.022Z,3.4
2022-09-07T10:50:56.881Z,3
2022-09-07T10:52:05.213Z,3
2022-09-07T10:53:39.328Z,3
2022-09-07T10:54:30.234Z,2.7
2022-09-07T10:55:30.393Z,2.7
2022-09-07T10:56:38.725Z,2.7
2022-09-07T10:57:49.187Z,2.9
2022-09-07T10:59:03.849Z,2.9
2022-09-07T11:00:07.789Z,2.9
2022-09-07T11:01:12.795Z,2.8
2022-09-07T11:02:21.104Z,2.8
2022-09-07T11:03:29.443Z,2.8
2022-09-07T11:04:38.270Z,3
2022-09-07T11:05:46.246Z,3
2022-09-07T11:06:54.600Z,3
2022-09-07T11:08:03.119Z,3.2
2022-09-07T11:09:19.517Z,3.2
2022-09-07T11:10:19.789Z,3.2
2022-09-07T11:12:36.734Z,3
2022-09-07T11:14:09.193Z,3
2022-09-07T11:14:53.611Z,3.3
2022-09-07T11:16:01.924Z,3.3
2022-09-07T11:17:10.273Z,3.3
2022-09-07T11:18:18.749Z,3.5
2022-09-07T11:19:35.265Z,3.5
2022-09-07T11:20:35.417Z,3.5
2022-09-07T11:21:59.261Z,3.4
2022-09-07T11:22:52.257Z,3.4
2022-09-07T11:24:00.590Z,3.4
2022-09-07T11:26:17.453Z,3.3
2022-09-07T11:27:25.775Z,3.3
2022-09-07T11:28:34.316Z,3.2
2022-09-07T11:29:42.631Z,3.2
2022-09-07T11:30:50.999Z,3.2
2022-09-07T11:31:59.536Z,3.4
2022-09-07T11:33:07.881Z,3.4
2022-09-07T11:34:24.071Z,3.4
2022-09-07T11:35:24.751Z,3.2
2022-09-07T11:36:33.077Z,3.2
2022-09-07T11:37:41.388Z,3.2
2022-09-07T11:38:49.930Z,2.9
2022-09-07T11:39:58.339Z,2.9
2022-09-07T11:41:06.672Z,2.9
2022-09-07T11:42:44.804Z,3.2
2022-09-07T11:43:23.546Z,3.2
2022-09-07T11:44:31.887Z,3.2
2022-09-07T11:45:40.452Z,2.9
2022-09-07T11:46:48.800Z,2.9
2022-09-07T11:47:57.128Z,2.9
2022-09-07T11:49:05.713Z,2.9
2022-09-07T11:50:14.003Z,2.9
2022-09-07T11:51:22.323Z,2.9
2022-09-07T11:52:30.855Z,2.5
2022-09-07T11:53:39.196Z,2.5
2022-09-07T11:54:47.576Z,2.5
2022-09-07T11:55:56.119Z,2.4
2022-09-07T11:57:04.468Z,2.4
2022-09-07T11:58:12.821Z,2.4
2022-09-07T11:59:21.393Z,2.3
2022-09-07T12:00:29.718Z,2.3
2022-09-07T12:01:38.038Z,2.3
2022-09-07T12:02:58.012Z,2.3
2022-09-07T12:03:55.042Z,2.3
2022-09-07T12:05:03.381Z,2.3
2022-09-07T12:06:11.834Z,2.7
2022-09-07T12:07:20.172Z,2.7
2022-09-07T12:08:28.604Z,2.7
2022-09-07T12:09:37.067Z,2.5
2022-09-07T12:10:45.410Z,2.5
2022-09-07T12:11:53.755Z,2.5
2022-09-07T12:13:02.300Z,2.2
2022-09-07T12:14:10.641Z,2.2
2022-09-07T12:15:18.957Z,2.2
2022-09-07T12:16:27.485Z,2.1
2022-09-07T12:17:35.855Z,2.1
2022-09-07T12:18:44.223Z,2.1
2022-09-07T12:19:52.763Z,2.3
2022-09-07T12:21:01.113Z,2.3
2022-09-07T12:22:09.400Z,2.3
2022-09-07T12:23:17.987Z,1.8
2022-09-07T12:24:26.371Z,1.8
2022-09-07T12:25:34.715Z,1.8
2022-09-07T12:26:43.324Z,1.9
2022-09-07T12:27:51.673Z,1.9
2022-09-07T12:28:59.983Z,1.9
2022-09-07T12:30:08.588Z,1.8
2022-09-07T12:31:16.982Z,1.8
2022-09-07T12:33:33.852Z,1.8
2022-09-07T12:34:42.205Z,1.8
2022-09-07T12:35:50.599Z,1.8
2022-09-07T12:36:59.178Z,1.8
2022-09-07T12:38:07.491Z,1.8
2022-09-07T12:39:15.831Z,1.8
2022-09-07T12:40:24.411Z,1.8
2022-09-07T12:41:32.742Z,1.8
2022-09-07T12:42:41.091Z,1.8
2022-09-07T12:43:49.650Z,1.7
2022-09-07T12:44:58.006Z,1.7
2022-09-07T12:46:06.448Z,1.7
2022-09-07T12:47:14.901Z,1.6
2022-09-07T12:48:23.230Z,1.6
2022-09-07T12:49:31.552Z,1.6
2022-09-07T12:50:40.437Z,1.6
2022-09-07T12:52:14.176Z,1.6
2022-09-07T12:52:56.809Z,1.6
2022-09-07T12:54:05.306Z,1.6
2022-09-07T12:55:29.659Z,1.6
2022-09-07T12:56:22.014Z,1.6
2022-09-07T12:57:30.566Z,1.9
2022-09-07T12:58:38.928Z,1.9
2022-09-07T12:59:47.279Z,1.9
2022-09-07T13:00:55.829Z,1.7
2022-09-07T13:02:04.701Z,1.7
2022-09-07T13:04:21.064Z,1.9
2022-09-07T13:05:29.406Z,1.9
2022-09-07T13:07:46.299Z,1.6
2022-09-07T13:08:54.669Z,1.6
2022-09-07T13:10:02.975Z,1.6
2022-09-07T13:11:11.511Z,1.8
2022-09-07T13:14:36.706Z,1.6
2022-09-07T13:15:45.295Z,1.6
2022-09-07T13:18:02.146Z,1.6
2022-09-07T13:19:10.499Z,1.6
2022-09-07T13:20:18.851Z,1.6
2022-09-07T13:21:27.388Z,1.8
2022-09-07T13:22:35.746Z,1.8
2022-09-07T13:23:45.452Z,1.8
2022-09-07T13:24:52.760Z,2
2022-09-07T13:26:00.992Z,2
2022-09-07T13:27:09.311Z,2
2022-09-07T13:28:17.887Z,1.6
2022-09-07T13:29:26.217Z,1.6
2022-09-07T13:30:34.586Z,1.6
2022-09-07T13:31:43.128Z,1.7
2022-09-07T13:33:59.793Z,1.7
2022-09-07T13:35:08.363Z,1.6
2022-09-07T13:36:16.683Z,1.6
2022-09-07T13:37:25.006Z,1.6
2022-09-07T13:38:33.541Z,1.6
2022-09-07T13:39:41.964Z,1.6
2022-09-07T13:40:50.273Z,1.6
2022-09-07T13:41:58.780Z,1.8
2022-09-07T13:43:07.121Z,1.8
2022-09-07T13:44:15.466Z,1.8
2022-09-07T13:45:24.025Z,1.7
2022-09-07T13:46:32.394Z,1.7
2022-09-07T13:47:40.696Z,1.7
2022-09-07T13:48:49.249Z,1.7
2022-09-07T13:49:57.589Z,1.7
2022-09-07T13:51:05.908Z,1.7
2022-09-07T13:52:14.477Z,1.7
2022-09-07T13:53:22.802Z,1.7
2022-09-07T13:54:31.144Z,1.7
2022-09-07T13:55:39.702Z,1.5
2022-09-07T13:56:48.062Z,1.5
2022-09-07T13:57:56.360Z,1.5
2022-09-07T13:59:04.897Z,1.7
2022-09-07T14:00:13.269Z,1.7
2022-09-07T14:01:21.643Z,1.7
2022-09-07T14:02:30.166Z,1.8
2022-09-07T14:03:38.495Z,1.8
2022-09-07T14:04:46.839Z,1.8
2022-09-07T14:05:55.392Z,1.7
2022-09-07T14:07:03.716Z,1.7
2022-09-07T14:08:12.039Z,1.7
2022-09-07T14:09:20.609Z,1.7
2022-09-07T14:10:28.918Z,1.7
2022-09-07T14:11:37.255Z,1.7
2022-09-07T14:12:45.815Z,1.8
2022-09-07T14:13:54.173Z,1.8
2022-09-07T14:15:05.793Z,1.8
2022-09-07T14:16:11.095Z,1.7
2022-09-07T14:17:19.342Z,1.7
2022-09-07T14:18:27.685Z,1.7
2022-09-07T14:19:36.278Z,2.1
2022-09-07T14:20:44.565Z,2.1
2022-09-07T14:21:52.950Z,2.1
2022-09-07T14:23:01.445Z,1.8
2022-09-07T14:24:09.788Z,1.8
2022-09-07T14:25:18.101Z,1.8
2022-09-07T14:26:26.639Z,2
2022-09-07T14:27:34.947Z,2
2022-09-07T14:28:43.297Z,2
2022-09-07T14:29:51.806Z,1.9
2022-09-07T15:04:59.775Z,0
2022-09-07T15:06:08.188Z,0
2022-09-07T15:07:16.422Z,0
2022-09-07T15:08:24.963Z,1.9
2022-09-07T15:09:33.272Z,1.9
2022-09-07T15:10:41.931Z,1.9
2022-09-07T15:11:50.130Z,1.9
2022-09-07T15:12:58.488Z,1.9
2022-09-07T15:14:06.812Z,1.9
2022-09-07T15:15:15.336Z,1.8
2022-09-07T15:16:23.674Z,1.8
2022-09-07T15:17:47.459Z,1.8
2022-09-07T15:18:40.574Z,1.8
2022-09-07T15:19:48.913Z,1.8
2022-09-07T15:20:57.263Z,1.8
2022-09-07T15:22:05.791Z,1.6
2022-09-07T15:23:14.180Z,1.6
2022-09-07T15:24:22.532Z,1.6
2022-09-07T15:25:31.056Z,2
2022-09-07T15:27:47.780Z,2
2022-09-07T15:29:12.169Z,1.8
2022-09-07T15:30:05.089Z,1.8
2022-09-07T15:32:22.000Z,2.1
2022-09-07T15:33:31.384Z,2.1
2022-09-07T15:34:38.659Z,2.1
2022-09-07T15:35:47.191Z,2.2
2022-09-07T15:36:55.943Z,2.2
2022-09-07T15:38:05.369Z,2.2
2022-09-07T15:39:12.435Z,2
2022-09-07T15:40:20.881Z,2
2022-09-07T15:41:29.069Z,2
2022-09-07T15:43:47.589Z,2
2022-09-07T15:44:54.367Z,2
2022-09-07T15:46:03.703Z,1.5
2022-09-07T15:48:19.632Z,1.5
2022-09-07T15:49:28.152Z,2
2022-09-07T15:50:36.490Z,2
2022-09-07T15:52:53.425Z,1.8
2022-09-07T15:54:13.365Z,1.8
2022-09-07T15:55:10.054Z,1.8
2022-09-07T15:56:20.099Z,2
2022-09-07T15:58:35.371Z,2
2022-09-07T15:59:43.910Z,1.9
2022-09-07T16:01:51.347Z,1.9
2022-09-07T16:02:00.800Z,1.9
2022-09-07T16:03:09.585Z,1.9
2022-09-07T16:04:17.552Z,1.9
2022-09-07T16:05:29.100Z,1.9
2022-09-07T16:06:35.795Z,2
2022-09-07T16:08:52.075Z,2
2022-09-07T16:10:02.345Z,2.1
2022-09-07T16:11:11.325Z,2.1
2022-09-07T16:13:24.817Z,2.8
2022-09-07T16:14:34.970Z,2.8
2022-09-07T16:15:45.040Z,2.8
2022-09-07T16:18:01.495Z,1.9
2022-09-07T16:19:09.826Z,1.9
2022-09-07T16:20:18.362Z,2
2022-09-07T16:21:26.720Z,2
2022-09-07T16:23:43.623Z,1.7
2022-09-07T16:24:51.987Z,1.7
2022-09-07T16:26:00.277Z,1.7
2022-09-07T16:27:08.818Z,1.9
2022-09-07T16:28:17.131Z,1.9
2022-09-07T16:29:25.468Z,1.9
2022-09-07T16:30:34.005Z,2
2022-09-07T16:32:50.745Z,2
2022-09-07T16:33:59.273Z,1.7
2022-09-07T16:35:07.628Z,1.7
2022-09-07T16:36:16.128Z,1.7
2022-09-07T16:37:24.521Z,1.8
2022-09-07T16:38:48.315Z,1.8
2022-09-07T16:39:41.256Z,1.8
2022-09-07T16:40:50.066Z,1.9
2022-09-07T16:41:58.074Z,1.9
2022-09-07T16:43:06.432Z,1.9
2022-09-07T16:44:14.992Z,1.7
2022-09-07T16:46:31.667Z,1.7
2022-09-07T16:47:40.238Z,1.8
2022-09-07T16:48:48.576Z,1.8
2022-09-07T16:49:56.928Z,1.8
2022-09-07T16:51:05.464Z,1.7
2022-09-07T16:52:13.818Z,1.7
2022-09-07T16:53:22.206Z,1.7
2022-09-07T16:54:32.490Z,2.2
2022-09-07T16:55:39.083Z,2.2
2022-09-07T16:56:47.457Z,2.2
2022-09-07T16:59:04.301Z,1.6
2022-09-07T17:00:12.645Z,1.6
2022-09-07T17:01:21.436Z,1.9
2022-09-07T17:02:29.568Z,1.9
2022-09-07T17:03:37.942Z,1.9
2022-09-07T17:04:46.447Z,1.9
2022-09-07T17:05:54.806Z,1.9